21kousinmaru — JD2168 — position and weather

sailwx.info

Track history (hours):
 
Tides and Currents Weather Stations Pressure Air Temp Water Temp Dewpoint Dewpoint Depression Visibility Wind Speed Wind Dir Waves Ship Positions

21kousinmaru

Last reported at 2018-Feb-24 22:01 UTC. Time now 2018-Feb-24 22:15 UTC.
Position N 34°07' E 135°08'.

Length 68 m; draft 4.1 m.

MMSI: 431501835.

Date/timePositionNaut miles runAvg speedWind from/ knotsBaromVisibWave heightAir tempDewpointWater temp
2018-Feb-24 22:01N 34°07' E 135°08'0 0.2
2018-Feb-24 21:30N 34°07' E 135°08'1 1.1
2018-Feb-24 21:00N 34°08' E 135°08'0 0.0
2018-Feb-24 20:30N 34°08' E 135°08'0 0.0
2018-Feb-24 20:01N 34°08' E 135°08'0 0.0
2018-Feb-24 19:29N 34°08' E 135°08'0 0.0
2018-Feb-24 19:00N 34°08' E 135°08'0 0.0
2018-Feb-24 18:30N 34°08' E 135°08'0 0.0
2018-Feb-24 18:00N 34°08' E 135°08'0 0.0
2018-Feb-24 17:30N 34°08' E 135°08'0 0.0
2018-Feb-24 16:56N 34°08' E 135°08'0 0.0
2018-Feb-24 16:30N 34°08' E 135°08'0 0.0
2018-Feb-24 16:00N 34°08' E 135°08'3 5.6
2018-Feb-24 15:30N 34°08' E 135°04'611.3
2018-Feb-24 15:01N 34°08' E 134°58'611.2
2018-Feb-24 14:30N 34°08' E 134°51'611.3
2018-Feb-24 14:00N 34°10' E 134°44'711.7
2018-Feb-24 13:24N 34°15' E 134°38'411.3
2018-Feb-24 13:00N 34°17' E 134°33'611.3
2018-Feb-24 12:28N 34°19' E 134°27'1312.0
2018-Feb-24 11:23N 34°24' E 134°12'75 4.2
2018-Feb-23 17:41N 34°01' E 132°46'213.7
2018-Feb-23 17:31N 33°59' E 132°44'913.3
2018-Feb-23 16:51N 33°54' E 132°36'1513.0
2018-Feb-23 15:44N 33°50' E 132°19'512.8
2018-Feb-23 15:20N 33°49' E 132°13'412.3
2018-Feb-23 15:00N 33°48' E 132°08'1311.7
2018-Feb-23 13:55N 33°45' E 131°53'512.2
2018-Feb-23 13:30N 33°47' E 131°47'612.0
2018-Feb-23 12:58N 33°48' E 131°40'612.2
2018-Feb-23 12:30N 33°49' E 131°33'612.2
2018-Feb-23 12:00N 33°50' E 131°26'612.3
2018-Feb-23 11:30N 33°51' E 131°19'611.9
2018-Feb-23 11:00N 33°54' E 131°12'2 4.9
2018-Feb-23 10:30N 33°56' E 131°11'0 0.0
2018-Feb-23 10:00N 33°56' E 131°11'0 0.0
2018-Feb-23 09:30N 33°56' E 131°11'0 0.0
2018-Feb-23 09:00N 33°56' E 131°11'0 0.0
2018-Feb-23 08:30N 33°56' E 131°11'0 0.0
2018-Feb-23 08:00N 33°56' E 131°11'0 0.0
2018-Feb-23 07:30N 33°56' E 131°11'0 0.7
2018-Feb-23 07:00N 33°56' E 131°12'510.2
2018-Feb-23 06:30N 33°52' E 131°15'612.0
2018-Feb-23 06:00N 33°50' E 131°22'612.0
2018-Feb-23 05:30N 33°47' E 131°28'612.0
2018-Feb-23 05:00N 33°44' E 131°34'612.1
2018-Feb-23 04:31N 33°41' E 131°41'612.2
2018-Feb-23 04:00N 33°36' E 131°45'612.1
2018-Feb-23 03:30N 33°30' E 131°47'713.2
2018-Feb-23 02:59N 33°24' E 131°47'8 2.1
2018-Feb-22 23:11N 33°16' E 131°47'2 9.9
2018-Feb-22 22:59N 33°18' E 131°46'511.3
2018-Feb-22 22:31N 33°22' E 131°43'0 0.2
2018-Feb-22 22:00N 33°22' E 131°43'0 0.0
2018-Feb-22 21:30N 33°22' E 131°43'0 0.0
2018-Feb-22 20:36N 33°22' E 131°43'0 0.1
2018-Feb-22 20:30N 33°22' E 131°43'0 0.0
2018-Feb-22 19:48N 33°22' E 131°43'0 0.0
2018-Feb-22 19:30N 33°22' E 131°43'0 0.0
2018-Feb-22 18:51N 33°22' E 131°43'0 0.0
2018-Feb-22 18:24N 33°22' E 131°43'0 0.0
2018-Feb-22 18:00N 33°22' E 131°43'0 0.1
2018-Feb-22 17:24N 33°22' E 131°43'0 0.0
2018-Feb-22 17:00N 33°22' E 131°43'0 0.0
2018-Feb-22 16:24N 33°22' E 131°43'0 0.1
2018-Feb-22 15:57N 33°22' E 131°43'0 0.0
2018-Feb-22 15:30N 33°22' E 131°43'0 0.0
2018-Feb-22 15:00N 33°22' E 131°43'0 0.0
2018-Feb-22 14:27N 33°22' E 131°43'0 0.0
2018-Feb-22 14:00N 33°22' E 131°43'0 0.0
2018-Feb-22 13:30N 33°22' E 131°43'0 0.0
2018-Feb-22 13:00N 33°22' E 131°43'0 0.0
2018-Feb-22 12:30N 33°22' E 131°43'0 0.0
2018-Feb-22 12:00N 33°22' E 131°43'0 0.1
2018-Feb-22 11:24N 33°22' E 131°43'0 0.0
2018-Feb-22 10:56N 33°22' E 131°43'0 0.0
2018-Feb-22 10:29N 33°22' E 131°43'0 0.0
2018-Feb-22 09:56N 33°22' E 131°43'0 0.0
2018-Feb-22 09:26N 33°22' E 131°43'7 7.5
2018-Feb-22 08:32N 33°28' E 131°47'013.7
2018-Feb-22 08:30N 33°28' E 131°48'713.4
2018-Feb-22 07:58N 33°35' E 131°46'613.7
2018-Feb-22 07:30N 33°41' E 131°42'813.6
2018-Feb-22 06:55N 33°44' E 131°33'613.1
2018-Feb-22 06:29N 33°46' E 131°27'612.9
2018-Feb-22 06:01N 33°49' E 131°20'612.8
2018-Feb-22 05:31N 33°51' E 131°13'612.5
2018-Feb-22 05:00N 33°55' E 131°06'611.9
2018-Feb-22 04:30N 33°58' E 131°01'4 9.0
2018-Feb-22 04:01N 33°56' E 130°56'3 5.8
2018-Feb-22 03:31N 33°55' E 130°53'510.5
2018-Feb-22 03:00N 33°58' E 130°47'2 4.2
2018-Feb-22 02:30N 33°56' E 130°47'0 0.0
2018-Feb-22 02:00N 33°56' E 130°47'0 0.0
2018-Feb-22 01:29N 33°56' E 130°47'0 0.0
2018-Feb-22 01:00N 33°56' E 130°47'0 0.0
2018-Feb-22 00:30N 33°56' E 130°47'1 1.5
2018-Feb-22 00:00N 33°56' E 130°46'4 7.0
2018-Feb-21 23:30N 33°58' E 130°42'2 4.9
2018-Feb-21 23:00N 33°56' E 130°40'0 0.0
2018-Feb-21 22:30N 33°56' E 130°40'0 0.0
2018-Feb-21 22:00N 33°56' E 130°40'0 0.0
2018-Feb-21 21:30N 33°56' E 130°40'0 0.0
2018-Feb-21 21:00N 33°56' E 130°40'0 0.0
2018-Feb-21 20:30N 33°56' E 130°40'0 0.0
2018-Feb-21 20:00N 33°56' E 130°40'0 0.0
2018-Feb-21 19:30N 33°56' E 130°40'0 0.0
2018-Feb-21 19:00N 33°56' E 130°40'0 0.0
2018-Feb-21 18:30N 33°56' E 130°40'0 0.0
2018-Feb-21 18:00N 33°56' E 130°40'0 0.0
2018-Feb-21 17:30N 33°56' E 130°40'0 0.0
2018-Feb-21 17:00N 33°56' E 130°40'0 0.0
2018-Feb-21 16:27N 33°56' E 130°40'0 0.0
2018-Feb-21 16:00N 33°56' E 130°40'0 0.0
2018-Feb-21 15:30N 33°56' E 130°40'0 0.0
2018-Feb-21 14:57N 33°56' E 130°40'0 0.0
2018-Feb-21 14:30N 33°56' E 130°40'0 0.0
2018-Feb-21 14:00N 33°56' E 130°40'0 0.0
2018-Feb-21 13:30N 33°56' E 130°40'0 0.0
2018-Feb-21 13:00N 33°56' E 130°40'0 0.0
2018-Feb-21 12:30N 33°56' E 130°40'0 0.0
2018-Feb-21 11:59N 33°56' E 130°40'0 0.0
2018-Feb-21 11:29N 33°56' E 130°40'0 0.0
2018-Feb-21 10:59N 33°56' E 130°40'0 0.0
2018-Feb-21 10:29N 33°56' E 130°40'0 0.0
2018-Feb-21 09:59N 33°56' E 130°40'0 0.0
2018-Feb-21 09:29N 33°56' E 130°40'0 0.0
2018-Feb-21 08:59N 33°56' E 130°40'0 0.0
2018-Feb-21 08:29N 33°56' E 130°40'3 5.5
2018-Feb-21 08:00N 33°57' E 130°37'611.9
2018-Feb-21 07:30N 33°57' E 130°29'611.2
2018-Feb-21 07:00N 33°55' E 130°23'611.3
2018-Feb-21 06:30N 33°52' E 130°17'611.3
2018-Feb-21 06:00N 33°49' E 130°12'611.1
2018-Feb-21 05:29N 33°46' E 130°06'4 0.2
2018-Feb-20 06:29N 33°43' E 130°02'1511.8
2018-Feb-20 05:14N 33°52' E 130°16'311.7
2018-Feb-20 05:00N 33°53' E 130°19'611.6
2018-Feb-20 04:28N 33°56' E 130°26'511.8
2018-Feb-20 04:00N 33°57' E 130°32'611.9
2018-Feb-20 03:30N 33°57' E 130°39'611.7
2018-Feb-20 03:00N 33°57' E 130°46'2 3.5
2018-Feb-20 02:30N 33°56' E 130°47'0 0.1
2018-Feb-20 02:00N 33°56' E 130°47'0 0.0
2018-Feb-20 01:30N 33°56' E 130°47'0 0.0
2018-Feb-20 01:00N 33°56' E 130°47'0 0.0
2018-Feb-20 00:30N 33°56' E 130°47'2 3.1
2018-Feb-20 00:01N 33°57' E 130°46'4 7.9
2018-Feb-19 23:31N 33°58' E 130°51'2 3.8
2018-Feb-19 23:00N 33°58' E 130°53'0 0.0
2018-Feb-19 22:28N 33°58' E 130°53'0 0.0
2018-Feb-19 21:58N 33°58' E 130°53'0 0.0
2018-Feb-19 21:22N 33°58' E 130°53'0 0.0
2018-Feb-19 20:58N 33°58' E 130°53'0 0.0
2018-Feb-19 20:28N 33°58' E 130°53'0 0.0
2018-Feb-19 19:58N 33°58' E 130°53'0 0.0
2018-Feb-19 19:28N 33°58' E 130°53'0 0.0
2018-Feb-19 18:58N 33°58' E 130°53'0 0.0
2018-Feb-19 18:28N 33°58' E 130°53'0 0.0
2018-Feb-19 17:58N 33°58' E 130°53'0 0.0
2018-Feb-19 17:28N 33°58' E 130°53'0 0.0
2018-Feb-19 16:58N 33°58' E 130°53'0 0.0
2018-Feb-19 16:28N 33°58' E 130°53'0 0.0
2018-Feb-19 15:58N 33°58' E 130°53'0 0.0
2018-Feb-19 15:28N 33°58' E 130°53'0 0.0
2018-Feb-19 14:58N 33°58' E 130°53'0 0.0
2018-Feb-19 14:28N 33°58' E 130°53'0 0.0
2018-Feb-19 13:58N 33°58' E 130°53'0 0.0
2018-Feb-19 13:28N 33°58' E 130°53'0 0.0
2018-Feb-19 12:58N 33°58' E 130°53'0 0.0
2018-Feb-19 12:28N 33°58' E 130°53'0 0.0
2018-Feb-19 12:01N 33°58' E 130°53'0 0.0
2018-Feb-19 11:31N 33°58' E 130°53'0 0.0
2018-Feb-19 11:01N 33°58' E 130°53'0 0.0
2018-Feb-19 10:30N 33°58' E 130°53'0 0.0
2018-Feb-19 10:00N 33°58' E 130°53'0 0.0
2018-Feb-19 09:30N 33°58' E 130°53'0 0.0
2018-Feb-19 09:00N 33°58' E 130°53'0 0.0
2018-Feb-19 08:24N 33°58' E 130°53'0 0.1
2018-Feb-19 08:00N 33°58' E 130°53'510.6
2018-Feb-19 07:30N 33°58' E 130°47'612.4
2018-Feb-19 07:00N 33°58' E 130°39'612.4
2018-Feb-19 06:30N 33°57' E 130°32'713.0
2018-Feb-19 06:00N 33°56' E 130°24'612.6
2018-Feb-19 05:30N 33°53' E 130°18'612.5
2018-Feb-19 05:00N 33°49' E 130°11'612.5
2018-Feb-19 04:30N 33°46' E 130°05'4 0.2
2018-Feb-18 09:22N 33°43' E 130°01'512.9
2018-Feb-18 09:00N 33°46' E 130°06'912.7
2018-Feb-18 08:19N 33°51' E 130°14'412.5
2018-Feb-18 08:00N 33°53' E 130°18'612.1
2018-Feb-18 07:30N 33°56' E 130°24'611.6
2018-Feb-18 06:59N 33°57' E 130°32'612.3
2018-Feb-18 06:30N 33°57' E 130°39'612.1
2018-Feb-18 06:00N 33°58' E 130°46'611.2
2018-Feb-18 05:30N 33°56' E 130°52'4 8.1
2018-Feb-18 05:00N 33°57' E 130°57'611.3
2018-Feb-18 04:30N 33°57' E 131°04'612.0
2018-Feb-18 04:00N 33°55' E 131°10'2 3.8
2018-Feb-18 03:30N 33°56' E 131°11'0 0.0
2018-Feb-18 03:01N 33°56' E 131°11'0 0.0
2018-Feb-18 02:30N 33°56' E 131°11'0 0.0
2018-Feb-18 02:00N 33°56' E 131°11'0 0.0
2018-Feb-18 01:30N 33°56' E 131°11'0 0.0
2018-Feb-18 01:00N 33°56' E 131°11'0 0.0
2018-Feb-18 00:30N 33°56' E 131°11'1 1.5
2018-Feb-18 00:01N 33°56' E 131°12'2 3.4
2018-Feb-17 23:31N 33°54' E 131°11'0 0.0
2018-Feb-17 22:57N 33°54' E 131°11'0 0.0
2018-Feb-17 22:30N 33°54' E 131°11'0 0.0
2018-Feb-17 22:00N 33°54' E 131°11'0 0.0
2018-Feb-17 21:30N 33°54' E 131°11'0 0.0
2018-Feb-17 21:00N 33°54' E 131°11'0 0.0
2018-Feb-17 20:30N 33°54' E 131°11'0 0.0
2018-Feb-17 20:00N 33°54' E 131°11'0 0.0
2018-Feb-17 19:30N 33°54' E 131°11'0 0.1
2018-Feb-17 18:57N 33°54' E 131°11'0 0.0
2018-Feb-17 18:30N 33°54' E 131°11'0 0.0
2018-Feb-17 18:00N 33°54' E 131°11'0 0.0
2018-Feb-17 17:30N 33°54' E 131°11'0 0.0
2018-Feb-17 17:00N 33°54' E 131°11'0 0.0
2018-Feb-17 16:27N 33°54' E 131°11'0 0.0
2018-Feb-17 16:00N 33°54' E 131°11'0 0.0
2018-Feb-17 15:30N 33°54' E 131°11'0 0.0
2018-Feb-17 14:57N 33°54' E 131°11'0 0.0
2018-Feb-17 14:30N 33°54' E 131°11'0 0.0
2018-Feb-17 14:00N 33°54' E 131°11'0 0.0
2018-Feb-17 13:30N 33°54' E 131°11'1 1.8
2018-Feb-17 13:00N 33°53' E 131°12'612.6
2018-Feb-17 12:30N 33°51' E 131°19'612.3
2018-Feb-17 12:00N 33°48' E 131°25'612.3
2018-Feb-17 11:30N 33°45' E 131°32'612.5
2018-Feb-17 11:00N 33°42' E 131°39'612.2
2018-Feb-17 10:30N 33°38' E 131°44'612.4
2018-Feb-17 09:59N 33°32' E 131°47'712.9
2018-Feb-17 09:25N 33°25' E 131°48'511.6
2018-Feb-17 09:00N 33°20' E 131°47'4 1.2
2018-Feb-17 05:39N 33°17' E 131°44'212.6
2018-Feb-17 05:27N 33°17' E 131°41'1 0.2
2018-Feb-17 00:52N 33°17' E 131°41'510.3
2018-Feb-17 00:24N 33°21' E 131°42'2 2.7
2018-Feb-16 23:47N 33°23' E 131°43'0 0.0
2018-Feb-16 22:05N 33°23' E 131°43'0 0.1
2018-Feb-16 21:59N 33°23' E 131°43'0 0.0
2018-Feb-16 21:29N 33°23' E 131°43'0 0.0
2018-Feb-16 20:59N 33°23' E 131°43'0 0.0
2018-Feb-16 20:29N 33°23' E 131°43'0 0.0
2018-Feb-16 19:59N 33°23' E 131°43'0 0.0
2018-Feb-16 19:23N 33°23' E 131°43'0 0.0
2018-Feb-16 18:56N 33°23' E 131°43'0 0.0
2018-Feb-16 18:29N 33°23' E 131°43'0 0.1
2018-Feb-16 17:59N 33°23' E 131°43'0 0.0
2018-Feb-16 17:29N 33°23' E 131°43'0 0.0
2018-Feb-16 16:56N 33°23' E 131°43'0 0.0
2018-Feb-16 16:26N 33°23' E 131°43'0 0.0
2018-Feb-16 15:56N 33°23' E 131°43'0 0.0
2018-Feb-16 15:29N 33°23' E 131°43'0 0.0
2018-Feb-16 14:59N 33°23' E 131°43'0 0.0
2018-Feb-16 14:29N 33°23' E 131°43'0 0.0
2018-Feb-16 13:53N 33°23' E 131°43'0 0.0
2018-Feb-16 13:29N 33°23' E 131°43'0 0.1
2018-Feb-16 12:43N 33°23' E 131°43'0 0.1
2018-Feb-16 12:22N 33°23' E 131°43'0 0.1
2018-Feb-16 11:22N 33°23' E 131°43'0 0.0
2018-Feb-16 10:58N 33°23' E 131°43'0 0.0
2018-Feb-16 10:28N 33°23' E 131°43'0 0.0
2018-Feb-16 09:46N 33°23' E 131°43'0 0.0
2018-Feb-16 09:28N 33°23' E 131°43'0 0.0
2018-Feb-16 08:58N 33°23' E 131°43'4 5.8
2018-Feb-16 08:21N 33°25' E 131°47'412.4
2018-Feb-16 08:00N 33°27' E 131°51'612.5
2018-Feb-16 07:30N 33°31' E 131°57'712.8
2018-Feb-16 06:56N 33°35' E 132°04'1313.1
2018-Feb-16 05:59N 33°41' E 132°17'1313.5
2018-Feb-16 05:03N 33°48' E 132°30'713.5
2018-Feb-16 04:32N 33°53' E 132°36'013.5
2018-Feb-16 04:30N 33°53' E 132°36'912.8
2018-Feb-16 03:49N 33°59' E 132°44'1 0.1
2018-Feb-15 12:34N 33°60' E 132°45'113.3
2018-Feb-15 12:30N 33°59' E 132°44'3212.7
2018-Feb-15 10:01N 33°48' E 132°09'014.0
2018-Feb-15 10:00N 33°48' E 132°09'1311.8
2018-Feb-15 08:55N 33°46' E 131°54'511.9
2018-Feb-15 08:30N 33°46' E 131°48'711.9
2018-Feb-15 07:57N 33°48' E 131°40'511.9
2018-Feb-15 07:30N 33°49' E 131°34'612.1
2018-Feb-15 07:00N 33°50' E 131°27'612.1
2018-Feb-15 06:30N 33°52' E 131°20'611.0
2018-Feb-15 06:00N 33°54' E 131°14'2 4.4
2018-Feb-15 05:30N 33°56' E 131°15'0 0.0
2018-Feb-15 05:00N 33°56' E 131°15'0 0.0
2018-Feb-15 04:30N 33°56' E 131°15'0 0.0
2018-Feb-15 04:00N 33°56' E 131°15'0 0.0
2018-Feb-15 03:30N 33°56' E 131°15'0 0.0
2018-Feb-15 03:00N 33°56' E 131°15'0 0.0
2018-Feb-15 02:30N 33°56' E 131°15'2 4.8
2018-Feb-15 02:00N 33°54' E 131°13'1 2.6
2018-Feb-15 01:30N 33°54' E 131°12'0 0.0
2018-Feb-15 01:00N 33°54' E 131°12'0 0.0
2018-Feb-15 00:30N 33°54' E 131°12'0 0.0
2018-Feb-15 00:00N 33°54' E 131°12'0 0.1
2018-Feb-14 23:30N 33°54' E 131°11'0 0.0
2018-Feb-14 23:00N 33°54' E 131°11'0 0.0
2018-Feb-14 22:30N 33°54' E 131°11'  
Track history (hours):
 
Tides and Currents Weather Stations Pressure Air Temp Water Temp Dewpoint Dewpoint Depression Visibility Wind Speed Wind Dir Waves Ship Positions

21kousinmaru

Last reported at 2018-Feb-24 22:01 UTC. Time now 2018-Feb-24 22:15 UTC.
Position N 34°07' E 135°08'.

Length 68 m; draft 4.1 m.

MMSI: 431501835.

Date/timePositionNaut miles runAvg speedWind from/ knotsBaromVisibWave heightAir tempDewpointWater temp
2018-Feb-24 22:01N 34°07' E 135°08'0 0.2
2018-Feb-24 21:30N 34°07' E 135°08'1 1.1
2018-Feb-24 21:00N 34°08' E 135°08'0 0.0
2018-Feb-24 20:30N 34°08' E 135°08'0 0.0
2018-Feb-24 20:01N 34°08' E 135°08'0 0.0
2018-Feb-24 19:29N 34°08' E 135°08'0 0.0
2018-Feb-24 19:00N 34°08' E 135°08'0 0.0
2018-Feb-24 18:30N 34°08' E 135°08'0 0.0
2018-Feb-24 18:00N 34°08' E 135°08'0 0.0
2018-Feb-24 17:30N 34°08' E 135°08'0 0.0
2018-Feb-24 16:56N 34°08' E 135°08'0 0.0
2018-Feb-24 16:30N 34°08' E 135°08'0 0.0
2018-Feb-24 16:00N 34°08' E 135°08'3 5.6
2018-Feb-24 15:30N 34°08' E 135°04'611.3
2018-Feb-24 15:01N 34°08' E 134°58'611.2
2018-Feb-24 14:30N 34°08' E 134°51'611.3
2018-Feb-24 14:00N 34°10' E 134°44'711.7
2018-Feb-24 13:24N 34°15' E 134°38'411.3
2018-Feb-24 13:00N 34°17' E 134°33'611.3
2018-Feb-24 12:28N 34°19' E 134°27'1312.0
2018-Feb-24 11:23N 34°24' E 134°12'75 4.2
2018-Feb-23 17:41N 34°01' E 132°46'213.7
2018-Feb-23 17:31N 33°59' E 132°44'913.3
2018-Feb-23 16:51N 33°54' E 132°36'1513.0
2018-Feb-23 15:44N 33°50' E 132°19'512.8
2018-Feb-23 15:20N 33°49' E 132°13'412.3
2018-Feb-23 15:00N 33°48' E 132°08'1311.7
2018-Feb-23 13:55N 33°45' E 131°53'512.2
2018-Feb-23 13:30N 33°47' E 131°47'612.0
2018-Feb-23 12:58N 33°48' E 131°40'612.2
2018-Feb-23 12:30N 33°49' E 131°33'612.2
2018-Feb-23 12:00N 33°50' E 131°26'612.3
2018-Feb-23 11:30N 33°51' E 131°19'611.9
2018-Feb-23 11:00N 33°54' E 131°12'2 4.9
2018-Feb-23 10:30N 33°56' E 131°11'0 0.0
2018-Feb-23 10:00N 33°56' E 131°11'0 0.0
2018-Feb-23 09:30N 33°56' E 131°11'0 0.0
2018-Feb-23 09:00N 33°56' E 131°11'0 0.0
2018-Feb-23 08:30N 33°56' E 131°11'0 0.0
2018-Feb-23 08:00N 33°56' E 131°11'0 0.0
2018-Feb-23 07:30N 33°56' E 131°11'0 0.7
2018-Feb-23 07:00N 33°56' E 131°12'510.2
2018-Feb-23 06:30N 33°52' E 131°15'612.0
2018-Feb-23 06:00N 33°50' E 131°22'612.0
2018-Feb-23 05:30N 33°47' E 131°28'612.0
2018-Feb-23 05:00N 33°44' E 131°34'612.1
2018-Feb-23 04:31N 33°41' E 131°41'612.2
2018-Feb-23 04:00N 33°36' E 131°45'612.1
2018-Feb-23 03:30N 33°30' E 131°47'713.2
2018-Feb-23 02:59N 33°24' E 131°47'8 2.1
2018-Feb-22 23:11N 33°16' E 131°47'2 9.9
2018-Feb-22 22:59N 33°18' E 131°46'511.3
2018-Feb-22 22:31N 33°22' E 131°43'0 0.2
2018-Feb-22 22:00N 33°22' E 131°43'0 0.0
2018-Feb-22 21:30N 33°22' E 131°43'0 0.0
2018-Feb-22 20:36N 33°22' E 131°43'0 0.1
2018-Feb-22 20:30N 33°22' E 131°43'0 0.0
2018-Feb-22 19:48N 33°22' E 131°43'0 0.0
2018-Feb-22 19:30N 33°22' E 131°43'0 0.0
2018-Feb-22 18:51N 33°22' E 131°43'0 0.0
2018-Feb-22 18:24N 33°22' E 131°43'0 0.0
2018-Feb-22 18:00N 33°22' E 131°43'0 0.1
2018-Feb-22 17:24N 33°22' E 131°43'0 0.0
2018-Feb-22 17:00N 33°22' E 131°43'0 0.0
2018-Feb-22 16:24N 33°22' E 131°43'0 0.1
2018-Feb-22 15:57N 33°22' E 131°43'0 0.0
2018-Feb-22 15:30N 33°22' E 131°43'0 0.0
2018-Feb-22 15:00N 33°22' E 131°43'0 0.0
2018-Feb-22 14:27N 33°22' E 131°43'0 0.0
2018-Feb-22 14:00N 33°22' E 131°43'0 0.0
2018-Feb-22 13:30N 33°22' E 131°43'0 0.0
2018-Feb-22 13:00N 33°22' E 131°43'0 0.0
2018-Feb-22 12:30N 33°22' E 131°43'0 0.0
2018-Feb-22 12:00N 33°22' E 131°43'0 0.1
2018-Feb-22 11:24N 33°22' E 131°43'0 0.0
2018-Feb-22 10:56N 33°22' E 131°43'0 0.0
2018-Feb-22 10:29N 33°22' E 131°43'0 0.0
2018-Feb-22 09:56N 33°22' E 131°43'0 0.0
2018-Feb-22 09:26N 33°22' E 131°43'7 7.5
2018-Feb-22 08:32N 33°28' E 131°47'013.7
2018-Feb-22 08:30N 33°28' E 131°48'713.4
2018-Feb-22 07:58N 33°35' E 131°46'613.7
2018-Feb-22 07:30N 33°41' E 131°42'813.6
2018-Feb-22 06:55N 33°44' E 131°33'613.1
2018-Feb-22 06:29N 33°46' E 131°27'612.9
2018-Feb-22 06:01N 33°49' E 131°20'612.8
2018-Feb-22 05:31N 33°51' E 131°13'612.5
2018-Feb-22 05:00N 33°55' E 131°06'611.9
2018-Feb-22 04:30N 33°58' E 131°01'4 9.0
2018-Feb-22 04:01N 33°56' E 130°56'3 5.8
2018-Feb-22 03:31N 33°55' E 130°53'510.5
2018-Feb-22 03:00N 33°58' E 130°47'2 4.2
2018-Feb-22 02:30N 33°56' E 130°47'0 0.0
2018-Feb-22 02:00N 33°56' E 130°47'0 0.0
2018-Feb-22 01:29N 33°56' E 130°47'0 0.0
2018-Feb-22 01:00N 33°56' E 130°47'0 0.0
2018-Feb-22 00:30N 33°56' E 130°47'1 1.5
2018-Feb-22 00:00N 33°56' E 130°46'4 7.0
2018-Feb-21 23:30N 33°58' E 130°42'2 4.9
2018-Feb-21 23:00N 33°56' E 130°40'0 0.0
2018-Feb-21 22:30N 33°56' E 130°40'0 0.0
2018-Feb-21 22:00N 33°56' E 130°40'0 0.0
2018-Feb-21 21:30N 33°56' E 130°40'0 0.0
2018-Feb-21 21:00N 33°56' E 130°40'0 0.0
2018-Feb-21 20:30N 33°56' E 130°40'0 0.0
2018-Feb-21 20:00N 33°56' E 130°40'0 0.0
2018-Feb-21 19:30N 33°56' E 130°40'0 0.0
2018-Feb-21 19:00N 33°56' E 130°40'0 0.0
2018-Feb-21 18:30N 33°56' E 130°40'0 0.0
2018-Feb-21 18:00N 33°56' E 130°40'0 0.0
2018-Feb-21 17:30N 33°56' E 130°40'0 0.0
2018-Feb-21 17:00N 33°56' E 130°40'0 0.0
2018-Feb-21 16:27N 33°56' E 130°40'0 0.0
2018-Feb-21 16:00N 33°56' E 130°40'0 0.0
2018-Feb-21 15:30N 33°56' E 130°40'0 0.0
2018-Feb-21 14:57N 33°56' E 130°40'0 0.0
2018-Feb-21 14:30N 33°56' E 130°40'0 0.0
2018-Feb-21 14:00N 33°56' E 130°40'0 0.0
2018-Feb-21 13:30N 33°56' E 130°40'0 0.0
2018-Feb-21 13:00N 33°56' E 130°40'0 0.0
2018-Feb-21 12:30N 33°56' E 130°40'0 0.0
2018-Feb-21 11:59N 33°56' E 130°40'0 0.0
2018-Feb-21 11:29N 33°56' E 130°40'0 0.0
2018-Feb-21 10:59N 33°56' E 130°40'0 0.0
2018-Feb-21 10:29N 33°56' E 130°40'0 0.0
2018-Feb-21 09:59N 33°56' E 130°40'0 0.0
2018-Feb-21 09:29N 33°56' E 130°40'0 0.0
2018-Feb-21 08:59N 33°56' E 130°40'0 0.0
2018-Feb-21 08:29N 33°56' E 130°40'3 5.5
2018-Feb-21 08:00N 33°57' E 130°37'611.9
2018-Feb-21 07:30N 33°57' E 130°29'611.2
2018-Feb-21 07:00N 33°55' E 130°23'611.3
2018-Feb-21 06:30N 33°52' E 130°17'611.3
2018-Feb-21 06:00N 33°49' E 130°12'611.1
2018-Feb-21 05:29N 33°46' E 130°06'4 0.2
2018-Feb-20 06:29N 33°43' E 130°02'1511.8
2018-Feb-20 05:14N 33°52' E 130°16'311.7
2018-Feb-20 05:00N 33°53' E 130°19'611.6
2018-Feb-20 04:28N 33°56' E 130°26'511.8
2018-Feb-20 04:00N 33°57' E 130°32'611.9
2018-Feb-20 03:30N 33°57' E 130°39'611.7
2018-Feb-20 03:00N 33°57' E 130°46'2 3.5
2018-Feb-20 02:30N 33°56' E 130°47'0 0.1
2018-Feb-20 02:00N 33°56' E 130°47'0 0.0
2018-Feb-20 01:30N 33°56' E 130°47'0 0.0
2018-Feb-20 01:00N 33°56' E 130°47'0 0.0
2018-Feb-20 00:30N 33°56' E 130°47'2 3.1
2018-Feb-20 00:01N 33°57' E 130°46'4 7.9
2018-Feb-19 23:31N 33°58' E 130°51'2 3.8
2018-Feb-19 23:00N 33°58' E 130°53'0 0.0
2018-Feb-19 22:28N 33°58' E 130°53'0 0.0
2018-Feb-19 21:58N 33°58' E 130°53'0 0.0
2018-Feb-19 21:22N 33°58' E 130°53'0 0.0
2018-Feb-19 20:58N 33°58' E 130°53'0 0.0
2018-Feb-19 20:28N 33°58' E 130°53'0 0.0
2018-Feb-19 19:58N 33°58' E 130°53'0 0.0
2018-Feb-19 19:28N 33°58' E 130°53'0 0.0
2018-Feb-19 18:58N 33°58' E 130°53'0 0.0
2018-Feb-19 18:28N 33°58' E 130°53'0 0.0
2018-Feb-19 17:58N 33°58' E 130°53'0 0.0
2018-Feb-19 17:28N 33°58' E 130°53'0 0.0
2018-Feb-19 16:58N 33°58' E 130°53'0 0.0
2018-Feb-19 16:28N 33°58' E 130°53'0 0.0
2018-Feb-19 15:58N 33°58' E 130°53'0 0.0
2018-Feb-19 15:28N 33°58' E 130°53'0 0.0
2018-Feb-19 14:58N 33°58' E 130°53'0 0.0
2018-Feb-19 14:28N 33°58' E 130°53'0 0.0
2018-Feb-19 13:58N 33°58' E 130°53'0 0.0
2018-Feb-19 13:28N 33°58' E 130°53'0 0.0
2018-Feb-19 12:58N 33°58' E 130°53'0 0.0
2018-Feb-19 12:28N 33°58' E 130°53'0 0.0
2018-Feb-19 12:01N 33°58' E 130°53'0 0.0
2018-Feb-19 11:31N 33°58' E 130°53'0 0.0
2018-Feb-19 11:01N 33°58' E 130°53'0 0.0
2018-Feb-19 10:30N 33°58' E 130°53'0 0.0
2018-Feb-19 10:00N 33°58' E 130°53'0 0.0
2018-Feb-19 09:30N 33°58' E 130°53'0 0.0
2018-Feb-19 09:00N 33°58' E 130°53'0 0.0
2018-Feb-19 08:24N 33°58' E 130°53'0 0.1
2018-Feb-19 08:00N 33°58' E 130°53'510.6
2018-Feb-19 07:30N 33°58' E 130°47'612.4
2018-Feb-19 07:00N 33°58' E 130°39'612.4
2018-Feb-19 06:30N 33°57' E 130°32'713.0
2018-Feb-19 06:00N 33°56' E 130°24'612.6
2018-Feb-19 05:30N 33°53' E 130°18'612.5
2018-Feb-19 05:00N 33°49' E 130°11'612.5
2018-Feb-19 04:30N 33°46' E 130°05'4 0.2
2018-Feb-18 09:22N 33°43' E 130°01'512.9
2018-Feb-18 09:00N 33°46' E 130°06'912.7
2018-Feb-18 08:19N 33°51' E 130°14'412.5
2018-Feb-18 08:00N 33°53' E 130°18'612.1
2018-Feb-18 07:30N 33°56' E 130°24'611.6
2018-Feb-18 06:59N 33°57' E 130°32'612.3
2018-Feb-18 06:30N 33°57' E 130°39'612.1
2018-Feb-18 06:00N 33°58' E 130°46'611.2
2018-Feb-18 05:30N 33°56' E 130°52'4 8.1
2018-Feb-18 05:00N 33°57' E 130°57'611.3
2018-Feb-18 04:30N 33°57' E 131°04'612.0
2018-Feb-18 04:00N 33°55' E 131°10'2 3.8
2018-Feb-18 03:30N 33°56' E 131°11'0 0.0
2018-Feb-18 03:01N 33°56' E 131°11'0 0.0
2018-Feb-18 02:30N 33°56' E 131°11'0 0.0
2018-Feb-18 02:00N 33°56' E 131°11'0 0.0
2018-Feb-18 01:30N 33°56' E 131°11'0 0.0
2018-Feb-18 01:00N 33°56' E 131°11'0 0.0
2018-Feb-18 00:30N 33°56' E 131°11'1 1.5
2018-Feb-18 00:01N 33°56' E 131°12'2 3.4
2018-Feb-17 23:31N 33°54' E 131°11'0 0.0
2018-Feb-17 22:57N 33°54' E 131°11'0 0.0
2018-Feb-17 22:30N 33°54' E 131°11'0 0.0
2018-Feb-17 22:00N 33°54' E 131°11'0 0.0
2018-Feb-17 21:30N 33°54' E 131°11'0 0.0
2018-Feb-17 21:00N 33°54' E 131°11'0 0.0
2018-Feb-17 20:30N 33°54' E 131°11'0 0.0
2018-Feb-17 20:00N 33°54' E 131°11'0 0.0
2018-Feb-17 19:30N 33°54' E 131°11'0 0.1
2018-Feb-17 18:57N 33°54' E 131°11'0 0.0
2018-Feb-17 18:30N 33°54' E 131°11'0 0.0
2018-Feb-17 18:00N 33°54' E 131°11'0 0.0
2018-Feb-17 17:30N 33°54' E 131°11'0 0.0
2018-Feb-17 17:00N 33°54' E 131°11'0 0.0
2018-Feb-17 16:27N 33°54' E 131°11'0 0.0
2018-Feb-17 16:00N 33°54' E 131°11'0 0.0
2018-Feb-17 15:30N 33°54' E 131°11'0 0.0
2018-Feb-17 14:57N 33°54' E 131°11'0 0.0
2018-Feb-17 14:30N 33°54' E 131°11'0 0.0
2018-Feb-17 14:00N 33°54' E 131°11'0 0.0
2018-Feb-17 13:30N 33°54' E 131°11'1 1.8
2018-Feb-17 13:00N 33°53' E 131°12'612.6
2018-Feb-17 12:30N 33°51' E 131°19'612.3
2018-Feb-17 12:00N 33°48' E 131°25'612.3
2018-Feb-17 11:30N 33°45' E 131°32'612.5
2018-Feb-17 11:00N 33°42' E 131°39'612.2
2018-Feb-17 10:30N 33°38' E 131°44'612.4
2018-Feb-17 09:59N 33°32' E 131°47'712.9
2018-Feb-17 09:25N 33°25' E 131°48'511.6
2018-Feb-17 09:00N 33°20' E 131°47'4 1.2
2018-Feb-17 05:39N 33°17' E 131°44'212.6
2018-Feb-17 05:27N 33°17' E 131°41'1 0.2
2018-Feb-17 00:52N 33°17' E 131°41'510.3
2018-Feb-17 00:24N 33°21' E 131°42'2 2.7
2018-Feb-16 23:47N 33°23' E 131°43'0 0.0
2018-Feb-16 22:05N 33°23' E 131°43'0 0.1
2018-Feb-16 21:59N 33°23' E 131°43'0 0.0
2018-Feb-16 21:29N 33°23' E 131°43'0 0.0
2018-Feb-16 20:59N 33°23' E 131°43'0 0.0
2018-Feb-16 20:29N 33°23' E 131°43'0 0.0
2018-Feb-16 19:59N 33°23' E 131°43'0 0.0
2018-Feb-16 19:23N 33°23' E 131°43'0 0.0
2018-Feb-16 18:56N 33°23' E 131°43'0 0.0
2018-Feb-16 18:29N 33°23' E 131°43'0 0.1
2018-Feb-16 17:59N 33°23' E 131°43'0 0.0
2018-Feb-16 17:29N 33°23' E 131°43'0 0.0
2018-Feb-16 16:56N 33°23' E 131°43'0 0.0
2018-Feb-16 16:26N 33°23' E 131°43'0 0.0
2018-Feb-16 15:56N 33°23' E 131°43'0 0.0
2018-Feb-16 15:29N 33°23' E 131°43'0 0.0
2018-Feb-16 14:59N 33°23' E 131°43'0 0.0
2018-Feb-16 14:29N 33°23' E 131°43'0 0.0
2018-Feb-16 13:53N 33°23' E 131°43'0 0.0
2018-Feb-16 13:29N 33°23' E 131°43'0 0.1
2018-Feb-16 12:43N 33°23' E 131°43'0 0.1
2018-Feb-16 12:22N 33°23' E 131°43'0 0.1
2018-Feb-16 11:22N 33°23' E 131°43'0 0.0
2018-Feb-16 10:58N 33°23' E 131°43'0 0.0
2018-Feb-16 10:28N 33°23' E 131°43'0 0.0
2018-Feb-16 09:46N 33°23' E 131°43'0 0.0
2018-Feb-16 09:28N 33°23' E 131°43'0 0.0
2018-Feb-16 08:58N 33°23' E 131°43'4 5.8
2018-Feb-16 08:21N 33°25' E 131°47'412.4
2018-Feb-16 08:00N 33°27' E 131°51'612.5
2018-Feb-16 07:30N 33°31' E 131°57'712.8
2018-Feb-16 06:56N 33°35' E 132°04'1313.1
2018-Feb-16 05:59N 33°41' E 132°17'1313.5
2018-Feb-16 05:03N 33°48' E 132°30'713.5
2018-Feb-16 04:32N 33°53' E 132°36'013.5
2018-Feb-16 04:30N 33°53' E 132°36'912.8
2018-Feb-16 03:49N 33°59' E 132°44'1 0.1
2018-Feb-15 12:34N 33°60' E 132°45'113.3
2018-Feb-15 12:30N 33°59' E 132°44'3212.7
2018-Feb-15 10:01N 33°48' E 132°09'014.0
2018-Feb-15 10:00N 33°48' E 132°09'1311.8
2018-Feb-15 08:55N 33°46' E 131°54'511.9
2018-Feb-15 08:30N 33°46' E 131°48'711.9
2018-Feb-15 07:57N 33°48' E 131°40'511.9
2018-Feb-15 07:30N 33°49' E 131°34'612.1
2018-Feb-15 07:00N 33°50' E 131°27'612.1
2018-Feb-15 06:30N 33°52' E 131°20'611.0
2018-Feb-15 06:00N 33°54' E 131°14'2 4.4
2018-Feb-15 05:30N 33°56' E 131°15'0 0.0
2018-Feb-15 05:00N 33°56' E 131°15'0 0.0
2018-Feb-15 04:30N 33°56' E 131°15'0 0.0
2018-Feb-15 04:00N 33°56' E 131°15'0 0.0
2018-Feb-15 03:30N 33°56' E 131°15'0 0.0
2018-Feb-15 03:00N 33°56' E 131°15'0 0.0
2018-Feb-15 02:30N 33°56' E 131°15'2 4.8
2018-Feb-15 02:00N 33°54' E 131°13'1 2.6
2018-Feb-15 01:30N 33°54' E 131°12'0 0.0
2018-Feb-15 01:00N 33°54' E 131°12'0 0.0
2018-Feb-15 00:30N 33°54' E 131°12'0 0.0
2018-Feb-15 00:00N 33°54' E 131°12'0 0.1
2018-Feb-14 23:30N 33°54' E 131°11'0 0.0
2018-Feb-14 23:00N 33°54' E 131°11'0 0.0
2018-Feb-14 22:30N 33°54' E 131°11'  

Dump ship's entire track history